Terminal Aerodrome Forecast
Issued by NWS Tallahassee, FL

Home | Current Version | Previous Version | Text Only | Print | Product List | Glossary On
Versions: 1 2 3 4 5 6 7 8 9 10 11 12 13 14 15 16 17 18 19 20
381
FTUS42 KTAE 210520
TAFTLH
TAF
KTLH 210520Z 2106/2206 18005KT P6SM OVC005
      TEMPO 2106/2109 3SM SHRA OVC003
     FM211000 17005KT 1SM RA BR OVC001
     FM211400 19012G18KT 3SM SHRA OVC015
     FM212000 20014G21KT 6SM TSRA OVC025CB=

USA.gov is the U.S. government's official web portal to all federal, state and local government web resources and services.